Terminal Aerodrome Forecast
Issued by NWS Upton, NY

Home | Current Version | Previous Version | Text Only | Print | Product List | Glossary On
Versions: 1 2 3 4 5 6 7 8 9 10 11 12 13 14 15 16 17 18 19 20 21 22 23 24 25 26 27 28 29 30
920
FTUS41 KOKX 060536
TAFLGA
TAF
KLGA 060536Z 0606/0706 32008KT P6SM SCT250
     FM061000 01008KT P6SM BKN250
     FM061400 05010KT P6SM BKN250
     FM061900 10010KT P6SM SCT040 BKN150
     FM062300 10010KT 5SM -RA BKN030 BKN100
     FM070100 08010KT 4SM -RA BR SCT012 OVC020
     FM070300 06010KT 3SM -RADZ BR SCT007 OVC012=

USA.gov is the U.S. government's official web portal to all federal, state and local government web resources and services.